Unquillo, Argentina
Current Conditions -  °F | °C
As of 4:00 AM on Thursday 18 Dec 2014 (Local Time) from SACO Reporting Station
Broken Clouds Broken Clouds  
Wind Chill: 66°   Ceiling: 1000
Heat Index: 66°   Visibility: 6mi
Dew Point: 52°   Wind: 16mph
Humidity: 60%   Direction: 340°NNW
Pressure: 29.97"   Gusts: NA
Location:  31.23°S, 64.32°W
Report Text: SACO 180700Z 34014KT 9999 BKN010 SCT04019/11 Q1015 RERA
Loading
Personal Weather Stations






























Interactive Weather Map New forecast layout! Learn more

10-Day Weather Forecast

Advertisements
Track Severe Weather on mobile